Time;durP1;ratioP1;P1;durP2;ratioP2;P2;SDS_P1;SDS_P2;PMS_P1;PMS_P2;Temp;Humidity;BMP_temperature;BMP_pressure;BME280_temperature;BME280_humidity;BME280_pressure;Samples;Min_cycle;Max_cycle;Signal;HPM_P1;HPM_P2
2023/08/23 00:00:09;;;;;;;7.18;4.53;;;;;;;16.74;99.55;101913.97;6205363;23;20082;-86
2023/08/23 00:02:34;;;;;;;9.52;4.55;;;;;;;16.78;99.09;101909.91;6204912;23;20059;-84
2023/08/23 00:04:59;;;;;;;8.25;4.45;;;;;;;16.73;99.69;101922.97;6205359;23;20012;-83
2023/08/23 00:07:25;;;;;;;10.13;4.82;;;;;;;16.59;99.86;101905.00;6178473;23;20005;-82
2023/08/23 00:09:50;;;;;;;7.00;4.70;;;;;;;16.59;99.40;101899.63;6178638;23;20421;-82
2023/08/23 00:12:15;;;;;;;6.47;4.78;;;;;;;16.61;100.00;101917.19;6204718;23;20122;-83
2023/08/23 00:14:42;;;;;;;8.30;4.90;;;;;;;16.49;100.00;101894.50;6205002;23;20088;-85
2023/08/23 00:17:07;;;;;;;8.98;4.88;;;;;;;16.52;100.00;101915.56;6205287;23;20066;-83
2023/08/23 00:19:33;;;;;;;13.00;5.20;;;;;;;16.51;100.00;101909.38;6204953;23;20020;-82
2023/08/23 00:21:58;;;;;;;7.97;4.70;;;;;;;16.37;100.00;101897.56;6204994;23;20004;-82
2023/08/23 00:24:23;;;;;;;10.30;4.55;;;;;;;16.46;100.00;101917.09;6205067;23;20008;-83
2023/08/23 00:26:49;;;;;;;9.55;3.90;;;;;;;16.47;100.00;101901.91;6178223;23;20016;-84
2023/08/23 00:29:14;;;;;;;8.18;3.80;;;;;;;16.50;100.00;101910.41;6204711;23;20314;-82
2023/08/23 00:31:39;;;;;;;5.65;3.67;;;;;;;16.52;100.00;101895.00;6205266;23;20008;-82
2023/08/23 00:34:05;;;;;;;9.98;4.50;;;;;;;16.39;100.00;101900.09;6177852;23;20032;-82
2023/08/23 00:36:30;;;;;;;9.05;4.43;;;;;;;16.46;100.00;101900.19;6178573;23;20085;-85
2023/08/23 00:38:55;;;;;;;9.05;4.95;;;;;;;16.37;100.00;101880.66;6204622;23;20018;-83
2023/08/23 00:41:22;;;;;;;6.43;4.32;;;;;;;16.41;100.00;101892.69;6204441;23;20349;-82
2023/08/23 00:43:47;;;;;;;7.97;4.60;;;;;;;16.37;100.00;101865.44;6204323;23;20013;-85
2023/08/23 00:46:14;;;;;;;8.15;4.60;;;;;;;16.33;100.00;101864.13;6204365;23;20055;-84
2023/08/23 00:48:40;;;;;;;10.40;5.05;;;;;;;16.38;100.00;101887.72;6204878;23;20405;-82
2023/08/23 00:51:06;;;;;;;8.13;5.05;;;;;;;16.31;100.00;101889.41;6178199;23;20004;-82
2023/08/23 00:53:32;;;;;;;8.80;4.70;;;;;;;16.11;100.00;101865.72;6204681;23;20005;-82
2023/08/23 00:55:59;;;;;;;6.95;4.60;;;;;;;16.10;100.00;101866.75;6204856;23;20449;-82
2023/08/23 00:58:25;;;;;;;9.05;4.68;;;;;;;16.20;100.00;101870.06;6205453;23;20012;-82
2023/08/23 01:00:53;;;;;;;6.03;4.78;;;;;;;16.35;100.00;101888.91;6204561;23;20108;-82
2023/08/23 01:03:19;;;;;;;5.82;4.60;;;;;;;16.36;100.00;101885.19;6204512;23;20369;-85
2023/08/23 01:05:59;;;;;;;7.38;4.50;;;;;;;16.43;100.00;101885.31;6204517;23;20023;-83
2023/08/23 01:08:38;;;;;;;8.88;4.80;;;;;;;16.35;100.00;101866.63;6177189;23;20015;-82
2023/08/23 01:11:31;;;;;;;8.27;4.40;;;;;;;16.37;100.00;101883.34;6204661;23;20012;-82
2023/08/23 01:14:04;;;;;;;9.73;4.57;;;;;;;16.23;100.00;101891.09;6205173;23;20461;-83
2023/08/23 01:16:32;;;;;;;4.80;3.90;;;;;;;16.14;100.00;101892.16;6204696;23;20083;-86
2023/08/23 01:19:00;;;;;;;7.22;3.80;;;;;;;15.97;100.00;101891.34;6204878;23;20087;-82
2023/08/23 01:21:32;;;;;;;7.40;4.07;;;;;;;16.02;100.00;101890.84;6177866;23;20784;-82
2023/08/23 01:23:58;;;;;;;8.35;4.43;;;;;;;16.00;100.00;101885.69;6205291;23;20087;-83
2023/08/23 01:26:23;;;;;;;6.95;4.07;;;;;;;16.00;100.00;101885.69;6205352;23;20438;-83
2023/08/23 01:28:51;;;;;;;6.93;4.40;;;;;;;16.06;100.00;101889.50;6204927;23;20122;-82
2023/08/23 01:31:20;;;;;;;8.05;4.43;;;;;;;15.90;100.00;101891.19;6205071;23;20005;-82
2023/08/23 01:34:06;;;;;;;8.98;4.55;;;;;;;15.73;100.00;101883.19;6177769;23;20074;-82
2023/08/23 01:36:32;;;;;;;6.00;4.15;;;;;;;15.69;100.00;101889.88;6205214;23;20004;-81
2023/08/23 01:38:58;;;;;;;6.53;4.15;;;;;;;15.83;100.00;101874.97;6204723;23;20020;-81
2023/08/23 01:41:24;;;;;;;7.78;4.18;;;;;;;15.83;100.00;101884.84;6205337;23;20009;-83
2023/08/23 01:43:51;;;;;;;6.88;4.20;;;;;;;15.80;100.00;101874.50;6205002;23;20013;-81
2023/08/23 01:46:16;;;;;;;6.20;4.40;;;;;;;15.89;100.00;101877.97;6204895;23;20013;-82
2023/08/23 01:48:42;;;;;;;6.70;4.63;;;;;;;15.79;100.00;101864.81;6204802;23;20032;-82
2023/08/23 01:51:07;;;;;;;9.50;4.80;;;;;;;15.68;100.00;101864.16;6204395;23;20142;-83
2023/08/23 01:53:33;;;;;;;5.93;3.13;;;;;;;15.49;100.00;101873.38;6204945;23;20008;-82
2023/08/23 01:56:01;;;;;;;7.95;4.40;;;;;;;15.14;100.00;101857.53;6206070;23;20012;-82
2023/08/23 01:58:26;;;;;;;5.63;4.43;;;;;;;15.11;100.00;101860.53;6207130;23;20047;-82
2023/08/23 02:00:52;;;;;;;8.20;4.60;;;;;;;15.28;100.00;101865.88;6181326;23;20013;-85
2023/08/23 02:03:18;;;;;;;6.05;4.45;;;;;;;15.46;100.00;101874.53;6207747;23;20020;-82
2023/08/23 02:05:44;;;;;;;7.10;4.32;;;;;;;15.44;100.00;101862.34;6213796;23;20005;-85
2023/08/23 02:08:09;;;;;;;9.43;4.32;;;;;;;15.51;100.00;101875.88;6200010;23;20015;-85
2023/08/23 02:10:35;;;;;;;7.75;4.25;;;;;;;15.52;100.00;101878.38;6221359;23;20059;-86
2023/08/23 02:13:04;;;;;;;11.45;4.85;;;;;;;15.40;100.00;101864.53;6194046;23;20012;-82
2023/08/23 02:15:29;;;;;;;9.85;4.50;;;;;;;15.48;100.00;101857.53;6194768;23;20012;-85
2023/08/23 02:17:55;;;;;;;10.55;5.10;;;;;;;15.55;100.00;101869.19;6217884;23;20066;-82
2023/08/23 02:20:20;;;;;;;7.03;4.60;;;;;;;15.48;100.00;101857.53;6207551;23;20408;-83
2023/08/23 02:22:45;;;;;;;6.07;4.20;;;;;;;15.56;100.00;101863.69;6207198;23;20087;-82
2023/08/23 02:25:11;;;;;;;7.47;4.38;;;;;;;15.52;100.00;101856.16;6207050;23;20084;-83
2023/08/23 02:27:36;;;;;;;5.65;4.30;;;;;;;15.60;100.00;101880.22;6206078;23;20015;-82
2023/08/23 02:30:03;;;;;;;8.13;4.28;;;;;;;15.44;100.00;101871.22;6179171;23;20512;-82
2023/08/23 02:32:28;;;;;;;8.43;4.60;;;;;;;15.51;100.00;101865.19;6206144;23;20040;-85
2023/08/23 02:34:53;;;;;;;6.13;4.38;;;;;;;15.44;100.00;101860.50;6205923;23;20043;-82
2023/08/23 02:37:19;;;;;;;7.60;4.68;;;;;;;15.46;100.00;101858.50;6205331;23;20440;-82
2023/08/23 02:39:44;;;;;;;8.07;4.70;;;;;;;15.36;100.00;101844.50;6205916;23;20004;-82
2023/08/23 02:42:09;;;;;;;7.38;4.15;;;;;;;15.50;100.00;101874.22;6206173;23;20468;-82
2023/08/23 02:44:35;;;;;;;8.18;4.50;;;;;;;15.45;100.00;101872.88;6206301;23;20012;-85
2023/08/23 02:47:00;;;;;;;8.73;4.40;;;;;;;15.18;100.00;101850.84;6205878;23;20040;-82
2023/08/23 02:49:25;;;;;;;8.00;4.50;;;;;;;15.21;100.00;101865.72;6206525;23;20004;-82
2023/08/23 02:51:51;;;;;;;8.50;4.40;;;;;;;15.29;100.00;101883.59;6205776;23;20091;-82
2023/08/23 02:54:16;;;;;;;6.68;4.43;;;;;;;15.16;100.00;101871.53;6178977;23;20008;-82
2023/08/23 02:56:41;;;;;;;9.38;4.45;;;;;;;15.09;100.00;101867.06;6205446;23;20460;-85
2023/08/23 02:59:07;;;;;;;7.18;4.45;;;;;;;14.98;100.00;101849.50;6205794;23;20084;-82
2023/08/23 03:01:32;;;;;;;7.70;4.35;;;;;;;15.03;100.00;101841.81;6178944;23;20727;-85
2023/08/23 03:03:57;;;;;;;6.55;4.18;;;;;;;15.17;100.00;101849.19;6178958;23;20015;-85
2023/08/23 03:06:23;;;;;;;7.07;4.30;;;;;;;15.13;100.00;101841.66;6205633;23;20387;-84
2023/08/23 03:08:48;;;;;;;7.63;4.38;;;;;;;15.04;100.00;101832.81;6204829;23;20004;-85
2023/08/23 03:11:13;;;;;;;5.93;4.20;;;;;;;15.09;100.00;101840.34;6205199;23;20005;-83
2023/08/23 03:13:39;;;;;;;6.80;4.32;;;;;;;15.21;100.00;101855.03;6205947;23;20360;-85
2023/08/23 03:16:04;;;;;;;6.95;4.63;;;;;;;15.13;100.00;101834.50;6178731;23;20062;-83
2023/08/23 03:18:29;;;;;;;9.32;4.20;;;;;;;15.13;100.00;101838.97;6205319;23;20366;-83
2023/08/23 03:20:55;;;;;;;4.80;4.28;;;;;;;15.22;100.00;101854.03;6205622;23;20147;-84
2023/08/23 03:23:20;;;;;;;7.43;4.25;;;;;;;15.20;100.00;101853.38;6205291;23;20016;-81
2023/08/23 03:25:47;;;;;;;6.18;4.10;;;;;;;15.15;100.00;101856.50;6205489;23;20008;-81
2023/08/23 03:28:13;;;;;;;8.07;4.20;;;;;;;15.01;100.00;101838.50;6178534;23;20345;-81
2023/08/23 03:30:39;;;;;;;5.32;3.95;;;;;;;14.97;100.00;101831.81;6205254;23;20402;-84
2023/08/23 03:33:05;;;;;;;6.25;3.90;;;;;;;14.98;100.00;101841.47;6205062;23;20108;-82
2023/08/23 03:35:30;;;;;;;7.55;3.75;;;;;;;15.04;100.00;101859.50;6178296;23;20377;-80
2023/08/23 03:37:56;;;;;;;7.43;4.05;;;;;;;14.98;100.00;101846.81;6205393;23;20009;-82
2023/08/23 03:40:21;;;;;;;7.72;4.18;;;;;;;14.94;100.00;101854.34;6204488;23;20372;-81
2023/08/23 03:42:46;;;;;;;4.30;3.50;;;;;;;14.88;100.00;101850.50;6204655;23;20092;-81
2023/08/23 03:45:12;;;;;;;4.65;3.70;;;;;;;14.83;100.00;101836.81;6178089;23;20013;-80
2023/08/23 03:47:37;;;;;;;4.30;3.90;;;;;;;14.86;100.00;101847.16;6203929;23;20012;-83
2023/08/23 03:50:03;;;;;;;7.22;3.80;;;;;;;14.77;100.00;101827.59;6177614;23;20434;-81
2023/08/23 03:52:29;;;;;;;5.78;4.00;;;;;;;14.75;100.00;101831.47;6204929;23;20147;-84
2023/08/23 03:54:54;;;;;;;6.03;3.63;;;;;;;14.93;100.00;101858.88;6204772;23;20433;-81
2023/08/23 03:57:19;;;;;;;6.78;4.15;;;;;;;14.86;100.00;101849.00;6204656;23;20012;-81
2023/08/23 03:59:45;;;;;;;7.07;4.00;;;;;;;14.90;100.00;101832.47;6205447;23;20337;-82
2023/08/23 04:02:10;;;;;;;6.15;4.40;;;;;;;15.01;100.00;101857.19;6205100;23;20076;-83
2023/08/23 04:04:35;;;;;;;8.07;4.13;;;;;;;14.95;100.00;101849.84;6205072;23;20036;-82
2023/08/23 04:07:01;;;;;;;7.35;4.00;;;;;;;14.95;100.00;101855.19;6204521;23;20059;-83
2023/08/23 04:09:26;;;;;;;7.55;3.85;;;;;;;14.92;100.00;101861.69;6204749;23;20063;-82
2023/08/23 04:11:51;;;;;;;5.05;3.45;;;;;;;14.82;100.00;101850.31;6204541;23;20015;-82
2023/08/23 04:14:17;;;;;;;5.97;4.00;;;;;;;14.65;100.00;101835.09;6206023;23;20016;-82
2023/08/23 04:16:42;;;;;;;4.40;3.72;;;;;;;14.74;100.00;101860.00;6205225;23;20341;-82
2023/08/23 04:19:07;;;;;;;4.78;3.80;;;;;;;14.78;100.00;101871.19;6204993;23;20005;-83
2023/08/23 04:21:32;;;;;;;5.18;3.80;;;;;;;14.72;100.00;101855.78;6205348;23;20487;-83
2023/08/23 04:23:59;;;;;;;6.75;4.30;;;;;;;14.55;100.00;101861.06;6205062;23;20451;-83
2023/08/23 04:26:25;;;;;;;5.03;4.10;;;;;;;14.45;100.00;101849.72;6204420;23;20385;-81
2023/08/23 04:28:50;;;;;;;7.95;4.40;;;;;;;14.52;100.00;101862.25;6204268;23;20000;-81
2023/08/23 04:31:15;;;;;;;5.75;4.65;;;;;;;14.50;100.00;101858.91;6204398;23;20012;-82
2023/08/23 04:33:42;;;;;;;8.23;4.47;;;;;;;14.35;100.00;101848.03;6204391;23;20012;-84
2023/08/23 04:36:07;;;;;;;7.25;4.35;;;;;;;14.46;100.00;101870.06;6204462;23;20016;-86
2023/08/23 04:38:33;;;;;;;6.68;4.32;;;;;;;14.45;100.00;101871.06;6204474;23;20014;-81
2023/08/23 04:41:00;;;;;;;13.02;4.40;;;;;;;14.31;100.00;101873.34;6204729;23;20521;-83
2023/08/23 04:43:25;;;;;;;10.00;4.53;;;;;;;14.18;100.00;101859.63;6204399;23;20076;-83
2023/08/23 04:45:53;;;;;;;8.30;4.43;;;;;;;13.97;100.00;101848.34;6204563;23;20032;-83
2023/08/23 04:48:18;;;;;;;10.10;4.50;;;;;;;14.07;100.00;101845.56;6177765;23;20008;-82
2023/08/23 04:50:50;;;;;;;9.75;4.80;;;;;;;14.28;100.00;101870.16;6203802;23;20092;-81
2023/08/23 04:53:15;;;;;;;7.53;4.40;;;;;;;14.37;100.00;101867.34;6203825;23;20004;-81
2023/08/23 04:55:40;;;;;;;9.45;4.70;;;;;;;14.34;100.00;101865.03;6176425;23;20019;-83
2023/08/23 04:58:06;;;;;;;9.95;4.28;;;;;;;14.44;100.00;101858.72;6204296;23;20040;-80
2023/08/23 05:00:32;;;;;;;6.65;4.30;;;;;;;14.48;100.00;101857.41;6203088;23;20009;-82
2023/08/23 05:02:57;;;;;;;7.97;4.18;;;;;;;14.48;100.00;101844.06;6203834;23;20012;-82
2023/08/23 05:05:22;;;;;;;5.97;4.38;;;;;;;14.61;100.00;101860.44;6203943;23;20008;-82
2023/08/23 05:07:49;;;;;;;5.72;4.30;;;;;;;14.61;100.00;101857.75;6203767;23;20063;-82
2023/08/23 05:10:15;;;;;;;7.07;4.30;;;;;;;14.64;100.00;101852.09;6177103;23;20013;-81
2023/08/23 05:12:40;;;;;;;6.97;4.63;;;;;;;14.69;100.00;101861.47;6204436;23;20054;-82
2023/08/23 05:15:06;;;;;;;14.23;4.95;;;;;;;14.61;100.00;101833.72;6204439;23;20477;-82
2023/08/23 05:17:31;;;;;;;8.75;4.78;;;;;;;14.77;100.00;101838.28;6203555;23;20043;-82
2023/08/23 05:19:56;;;;;;;9.95;5.60;;;;;;;14.85;100.00;101848.16;6203411;23;20331;-82
2023/08/23 05:22:22;;;;;;;10.23;5.55;;;;;;;14.89;100.00;101846.84;6204071;23;20016;-84
2023/08/23 05:24:47;;;;;;;6.88;4.93;;;;;;;14.72;100.00;101840.63;6177079;23;20013;-83
2023/08/23 05:27:12;;;;;;;11.55;5.40;;;;;;;14.76;100.00;101847.31;6203921;23;20421;-83
2023/08/23 05:29:38;;;;;;;11.30;4.43;;;;;;;14.75;100.00;101860.84;6203796;23;20032;-82
2023/08/23 05:32:03;;;;;;;7.00;4.40;;;;;;;14.77;100.00;101858.84;6203461;23;20036;-83
2023/08/23 05:34:30;;;;;;;10.27;4.65;;;;;;;14.75;100.00;101855.50;6204136;23;20062;-82
2023/08/23 05:36:55;;;;;;;8.63;4.68;;;;;;;14.76;100.00;101862.50;6204194;23;20345;-84
2023/08/23 05:39:20;;;;;;;9.30;5.00;;;;;;;14.72;100.00;101855.78;6204349;23;20008;-84
2023/08/23 05:41:46;;;;;;;9.30;4.97;;;;;;;14.64;100.00;101859.25;6204234;23;20336;-83
2023/08/23 05:44:11;;;;;;;11.68;6.05;;;;;;;14.67;100.00;101864.28;6203820;23;20016;-83
2023/08/23 05:46:36;;;;;;;9.73;5.82;;;;;;;14.65;100.00;101869.78;6204050;23;20479;-84
2023/08/23 05:49:01;;;;;;;14.60;6.10;;;;;;;14.62;100.00;101845.25;6203828;23;20009;-83
2023/08/23 05:51:27;;;;;;;7.43;5.75;;;;;;;14.76;100.00;101865.19;6204112;23;20019;-83
2023/08/23 05:53:52;;;;;;;10.80;6.82;;;;;;;14.88;100.00;101869.19;6203778;23;20012;-82
2023/08/23 05:56:17;;;;;;;14.27;6.88;;;;;;;14.93;100.00;101868.69;6203487;23;20005;-83
2023/08/23 05:58:43;;;;;;;10.77;7.93;;;;;;;14.95;100.00;101850.66;6177296;23;20013;-82
2023/08/23 06:01:08;;;;;;;15.60;8.43;;;;;;;15.11;100.00;101870.38;6203705;23;20079;-83
2023/08/23 06:03:33;;;;;;;14.27;8.40;;;;;;;15.18;100.00;101866.03;6203693;23;20069;-83
2023/08/23 06:05:59;;;;;;;11.00;7.60;;;;;;;15.24;100.00;101864.56;6203845;23;20013;-83
2023/08/23 06:08:24;;;;;;;13.57;7.28;;;;;;;15.22;100.00;101855.84;6177032;23;20733;-85
2023/08/23 06:10:49;;;;;;;9.60;7.20;;;;;;;15.20;100.00;101859.53;6203750;23;20009;-83
2023/08/23 06:13:15;;;;;;;11.27;7.43;;;;;;;15.35;100.00;101866.88;6204229;23;20112;-82
2023/08/23 06:15:40;;;;;;;11.27;7.85;;;;;;;15.35;100.00;101864.22;6204112;23;20047;-83
2023/08/23 06:18:06;;;;;;;12.30;8.10;;;;;;;15.41;100.00;101860.88;6177099;23;20099;-83
2023/08/23 06:20:31;;;;;;;11.07;8.20;;;;;;;15.63;100.00;101874.53;6203607;23;20050;-83
2023/08/23 06:22:58;;;;;;;16.63;8.48;;;;;;;15.66;100.00;101878.69;6203723;23;20013;-84
2023/08/23 06:25:23;;;;;;;12.35;8.70;;;;;;;15.66;100.00;101878.69;6204210;23;20012;-85
2023/08/23 06:27:48;;;;;;;12.57;8.77;;;;;;;15.79;100.00;101883.53;6203505;23;20355;-85
2023/08/23 06:30:15;;;;;;;15.77;9.48;;;;;;;15.91;100.00;101886.66;6203539;23;20080;-82
2023/08/23 06:32:46;;;;;;;14.68;9.85;;;;;;;15.77;100.00;101864.13;6203563;23;20430;-83
2023/08/23 06:35:13;;;;;;;16.55;10.48;;;;;;;15.85;100.00;101864.94;6203502;23;20456;-84
2023/08/23 06:37:38;;;;;;;17.63;10.20;;;;;;;15.88;100.00;101861.09;6203663;23;20013;-84
2023/08/23 06:40:04;;;;;;;18.80;10.65;;;;;;;16.05;100.00;101888.66;6203920;23;20385;-84
2023/08/23 06:42:29;;;;;;;15.00;9.75;;;;;;;16.14;100.00;101887.63;6176967;23;20027;-83
2023/08/23 06:44:55;;;;;;;16.55;10.60;;;;;;;16.16;100.00;101879.44;6205346;23;20083;-82
2023/08/23 06:47:20;;;;;;;17.27;10.43;;;;;;;16.11;100.00;101855.03;6205519;23;20059;-82
2023/08/23 06:49:45;;;;;;;17.30;10.10;;;;;;;16.25;100.00;101862.31;6205628;23;20004;-82
2023/08/23 06:52:11;;;;;;;16.05;10.02;;;;;;;16.38;100.00;101877.00;6178218;23;20012;-83
2023/08/23 06:54:36;;;;;;;16.92;10.80;;;;;;;16.51;100.00;101887.97;6205030;23;20183;-83
2023/08/23 06:57:01;;;;;;;18.23;10.73;;;;;;;16.55;100.00;101885.78;6204862;23;20009;-83
2023/08/23 06:59:27;;;;;;;17.17;10.60;;;;;;;16.68;100.00;101901.28;6204751;23;20516;-84
2023/08/23 07:01:52;;;;;;;17.63;10.73;;;;;;;16.67;100.00;101886.19;6178442;23;20015;-83
2023/08/23 07:04:17;;;;;;;19.05;11.25;;;;;;;16.82;100.00;101902.34;6205086;23;20088;-82
2023/08/23 07:06:43;;;;;;;20.15;11.35;;;;;;;16.89;100.00;101910.50;6205300;23;20393;-82
2023/08/23 07:09:10;;;;;;;22.40;11.82;;;;;;;16.80;100.00;101873.06;6205114;23;20018;-83
2023/08/23 07:11:35;;;;;;;18.70;10.90;;;;;;;17.00;100.00;101911.94;6177618;23;20012;-83
2023/08/23 07:14:00;;;;;;;18.45;11.65;;;;;;;17.08;100.00;101910.06;6204613;23;20035;-82
2023/08/23 07:16:26;;;;;;;16.23;10.43;;;;;;;17.00;100.00;101886.00;6204781;23;20335;-82
2023/08/23 07:18:51;;;;;;;12.85;8.73;;;;;;;17.18;100.00;101907.16;6177508;23;20396;-82
2023/08/23 07:21:17;;;;;;;15.02;8.90;;;;;;;17.22;100.00;101910.28;6204903;23;20020;-83
2023/08/23 07:23:42;;;;;;;11.95;8.57;;;;;;;17.33;100.00;101909.88;6205047;23;20016;-86
2023/08/23 07:26:09;;;;;;;13.18;8.15;;;;;;;17.33;100.00;101907.19;6205188;23;20013;-82
2023/08/23 07:28:34;;;;;;;10.55;7.68;;;;;;;17.40;100.00;101911.84;6203750;23;20019;-83
2023/08/23 07:31:00;;;;;;;11.88;7.90;;;;;;;17.39;100.00;101905.66;6204228;23;20196;-83
2023/08/23 07:33:26;;;;;;;10.88;7.57;;;;;;;17.63;100.00;101927.06;6203550;23;20004;-81
2023/08/23 07:35:59;;;;;;;12.65;7.50;;;;;;;17.74;100.00;101924.78;6176258;23;20004;-80
2023/08/23 07:38:25;;;;;;;11.40;8.07;;;;;;;17.84;100.00;101929.03;6203328;23;20341;-81
2023/08/23 07:40:51;;;;;;;10.70;6.95;;;;;;;17.88;99.40;101930.34;6205761;23;20008;-83
2023/08/23 07:43:16;;;;;;;12.40;7.45;;;;;;;17.98;100.00;101933.59;6178064;23;20055;-83
2023/08/23 07:45:41;;;;;;;15.65;7.57;;;;;;;17.94;99.82;101912.66;6204436;23;20346;-82
2023/08/23 07:48:06;;;;;;;12.20;7.28;;;;;;;18.13;99.11;101939.00;6174971;23;20032;-81
2023/08/23 07:50:32;;;;;;;13.48;7.93;;;;;;;18.17;98.15;101944.81;6175107;23;20043;-82
2023/08/23 07:52:57;;;;;;;13.68;7.95;;;;;;;18.21;98.14;101924.63;6201789;23;20012;-82
2023/08/23 07:55:23;;;;;;;11.10;7.30;;;;;;;18.31;96.70;101934.25;6201408;23;20035;-82
2023/08/23 07:57:48;;;;;;;9.73;6.90;;;;;;;18.34;96.22;101923.97;6202002;23;20097;-81
2023/08/23 08:00:14;;;;;;;11.93;6.97;;;;;;;18.42;94.76;101926.53;6202010;23;20015;-81
2023/08/23 08:02:39;;;;;;;12.65;7.22;;;;;;;18.53;95.42;101929.78;6177348;23;20012;-82
2023/08/23 08:05:05;;;;;;;12.05;7.55;;;;;;;18.58;96.39;101934.56;6204484;23;20090;-83
2023/08/23 08:07:30;;;;;;;11.85;7.50;;;;;;;18.58;92.44;101922.00;6203976;23;20413;-82
2023/08/23 08:09:56;;;;;;;12.45;7.75;;;;;;;18.66;94.97;101921.88;6203548;23;20009;-81
2023/08/23 08:12:22;;;;;;;12.73;7.65;;;;;;;18.86;95.80;101936.56;6204660;23;20009;-82
2023/08/23 08:14:47;;;;;;;13.38;7.55;;;;;;;18.89;94.53;101930.81;6177365;23;20023;-82
2023/08/23 08:17:12;;;;;;;12.07;7.57;;;;;;;18.92;94.40;101928.56;6204589;23;20398;-82
2023/08/23 08:19:38;;;;;;;12.45;7.25;;;;;;;18.95;93.36;101930.88;6203540;23;20020;-81
2023/08/23 08:22:03;;;;;;;10.90;7.57;;;;;;;18.99;92.32;101930.50;6203939;23;20009;-82
2023/08/23 08:24:29;;;;;;;10.35;7.20;;;;;;;19.00;90.23;101921.41;6203729;23;20012;-83
2023/08/23 08:26:55;;;;;;;9.48;6.78;;;;;;;19.13;88.42;101928.81;6203555;23;20178;-83
2023/08/23 08:29:21;;;;;;;10.52;6.50;;;;;;;19.21;88.49;101945.63;6176578;23;20403;-83
2023/08/23 08:31:50;;;;;;;13.35;6.38;;;;;;;19.32;88.92;101940.75;6203408;23;20015;-84
2023/08/23 08:34:15;;;;;;;8.80;6.43;;;;;;;19.45;91.04;101930.09;6204135;23;20005;-83
2023/08/23 08:36:40;;;;;;;6.68;5.50;;;;;;;19.49;86.25;101931.38;6204135;23;20009;-83
2023/08/23 08:39:06;;;;;;;12.32;5.53;;;;;;;19.47;86.50;101920.00;6204711;23;20062;-83
2023/08/23 08:41:31;;;;;;;7.65;5.30;;;;;;;19.55;86.11;101923.56;6204485;23;20447;-83
2023/08/23 08:43:57;;;;;;;9.23;5.50;;;;;;;19.60;85.01;101926.50;6204681;23;20058;-85
2023/08/23 08:46:23;;;;;;;11.18;6.10;;;;;;;19.62;86.19;101916.38;6176987;23;20008;-84
2023/08/23 08:48:48;;;;;;;10.63;5.90;;;;;;;19.70;85.32;101915.41;6204014;23;20015;-83
2023/08/23 08:51:19;;;;;;;8.73;5.50;;;;;;;19.85;83.80;101917.97;6203969;23;20008;-83
2023/08/23 08:53:50;;;;;;;8.60;4.90;;;;;;;19.93;82.96;101931.28;6204170;23;20015;-82
2023/08/23 08:56:17;;;;;;;11.20;5.28;;;;;;;19.97;80.59;101924.50;6204226;23;20469;-83
2023/08/23 08:58:45;;;;;;;8.23;4.50;;;;;;;19.99;81.68;101929.69;6204645;23;20004;-83
2023/08/23 09:01:13;;;;;;;7.78;4.60;;;;;;;20.19;82.42;101929.81;6205312;23;20004;-83
2023/08/23 09:03:40;;;;;;;10.23;5.03;;;;;;;20.19;82.89;101916.34;6179115;23;20404;-83
2023/08/23 09:06:06;;;;;;;8.73;5.07;;;;;;;20.21;82.74;101916.97;6205747;23;20009;-83
2023/08/23 09:08:33;;;;;;;7.38;4.88;;;;;;;20.32;79.86;101928.22;6206510;23;20508;-83
2023/08/23 09:10:59;;;;;;;9.70;4.90;;;;;;;20.44;83.86;101921.22;6222029;23;20611;-85
2023/08/23 09:13:25;;;;;;;8.02;4.40;;;;;;;20.65;82.84;101922.94;6220318;23;20016;-84
2023/08/23 09:15:51;;;;;;;10.10;4.30;;;;;;;20.62;79.39;101917.13;6216685;23;20004;-85
2023/08/23 09:18:20;;;;;;;10.60;4.20;;;;;;;20.65;77.30;101928.34;6215571;23;20032;-83
2023/08/23 09:20:46;;;;;;;15.10;4.90;;;;;;;20.59;77.09;101922.91;6188514;23;20013;-84
2023/08/23 09:23:11;;;;;;;14.57;5.15;;;;;;;20.62;77.92;101930.59;6210290;23;20457;-83
2023/08/23 09:25:36;;;;;;;8.65;4.50;;;;;;;20.74;81.04;101926.28;6204305;23;20020;-83
2023/08/23 09:28:02;;;;;;;15.02;5.85;;;;;;;20.64;77.85;101915.91;6203914;23;20032;-83
2023/08/23 09:30:28;;;;;;;12.63;6.25;;;;;;;20.86;78.77;101936.50;6177183;23;20096;-84
2023/08/23 09:32:53;;;;;;;15.23;7.00;;;;;;;20.94;79.31;101936.31;6203722;23;20346;-83
2023/08/23 09:35:19;;;;;;;14.57;6.47;;;;;;;21.05;81.36;101938.41;6203188;23;20078;-84
2023/08/23 09:37:48;;;;;;;14.68;6.15;;;;;;;21.05;78.75;101941.09;6176330;23;20047;-83
2023/08/23 09:40:29;;;;;;;9.88;6.07;;;;;;;21.05;76.92;101943.81;6203072;23;20012;-84
2023/08/23 09:42:55;;;;;;;11.68;6.32;;;;;;;21.08;77.02;101927.19;6203390;23;20005;-84
2023/08/23 09:45:22;;;;;;;10.02;6.03;;;;;;;21.20;77.70;101929.28;6203359;23;20025;-84
2023/08/23 09:47:52;;;;;;;11.65;6.55;;;;;;;21.27;75.56;101935.53;6203195;23;20013;-83
2023/08/23 09:50:22;;;;;;;11.05;6.00;;;;;;;21.33;78.36;101923.91;6202434;23;20040;-83
2023/08/23 09:52:57;;;;;;;11.38;6.63;;;;;;;21.35;75.59;101926.38;6202914;23;20449;-84
2023/08/23 09:55:24;;;;;;;11.13;7.25;;;;;;;21.39;74.75;101919.53;6202696;23;20441;-82
2023/08/23 09:57:51;;;;;;;12.85;6.97;;;;;;;21.39;74.69;101921.41;6204265;23;20336;-83
2023/08/23 10:00:17;;;;;;;12.50;7.10;;;;;;;21.49;75.57;101927.22;6203138;23;20020;-84
2023/08/23 10:02:44;;;;;;;12.00;7.60;;;;;;;21.74;80.05;101935.53;6202766;23;20009;-81
2023/08/23 10:05:11;;;;;;;13.02;6.95;;;;;;;21.85;75.93;101936.75;6203353;23;20342;-82
2023/08/23 10:07:38;;;;;;;11.02;6.85;;;;;;;21.85;73.63;101928.66;6203092;23;20004;-83
2023/08/23 10:10:05;;;;;;;9.63;6.30;;;;;;;21.87;73.43;101923.88;6202779;23;20424;-83
2023/08/23 10:12:33;;;;;;;10.98;6.97;;;;;;;21.98;71.79;101935.06;6203521;23;20005;-83
2023/08/23 10:15:00;;;;;;;13.23;6.85;;;;;;;22.13;75.40;101934.81;6203061;23;20031;-82
2023/08/23 10:17:26;;;;;;;12.02;6.30;;;;;;;22.19;73.59;101925.06;6203794;23;20008;-82
2023/08/23 10:19:52;;;;;;;11.73;6.47;;;;;;;22.14;70.89;101923.81;6204642;23;20013;-82
2023/08/23 10:22:18;;;;;;;10.10;6.18;;;;;;;22.25;71.88;101929.59;6205126;23;20013;-84
2023/08/23 10:24:49;;;;;;;10.13;6.40;;;;;;;22.20;71.72;101932.09;6205055;23;20437;-83
2023/08/23 10:27:18;;;;;;;8.18;5.65;;;;;;;22.28;70.75;101929.16;6204808;23;20009;-80
2023/08/23 10:29:49;;;;;;;11.07;6.05;;;;;;;22.28;69.52;101923.75;6205011;23;20008;-81
2023/08/23 10:32:15;;;;;;;7.97;5.30;;;;;;;22.35;70.27;101919.16;6204330;23;20014;-81
2023/08/23 10:34:40;;;;;;;8.68;5.10;;;;;;;22.40;66.81;101921.22;6204433;23;20004;-84
2023/08/23 10:37:20;;;;;;;10.18;5.85;;;;;;;22.57;70.15;101935.09;6177914;23;20008;-82
2023/08/23 10:39:49;;;;;;;10.07;6.50;;;;;;;22.55;67.65;101929.91;6204231;23;20382;-84
2023/08/23 10:42:19;;;;;;;12.32;6.75;;;;;;;22.66;69.79;101924.88;6204672;23;20024;-83
2023/08/23 10:44:59;;;;;;;10.18;6.60;;;;;;;22.60;68.33;101915.75;6204079;23;20005;-82
2023/08/23 10:47:25;;;;;;;8.48;5.85;;;;;;;22.76;68.92;101918.97;6203899;23;20047;-82
2023/08/23 10:49:52;;;;;;;10.38;5.93;;;;;;;22.78;68.00;101906.06;6176379;23;20040;-83
2023/08/23 10:52:18;;;;;;;9.75;6.93;;;;;;;22.89;67.03;101913.47;6204058;23;20442;-82
2023/08/23 10:54:43;;;;;;;11.48;6.93;;;;;;;22.94;70.31;101910.94;6204754;23;20047;-82
2023/08/23 10:57:09;;;;;;;12.02;6.40;;;;;;;22.93;67.33;101898.47;6204329;23;20008;-82
2023/08/23 10:59:34;;;;;;;8.40;6.10;;;;;;;23.10;67.66;101908.78;6204356;23;20013;-83
2023/08/23 11:02:00;;;;;;;12.18;5.90;;;;;;;23.09;65.17;101899.00;6204139;23;20511;-83
2023/08/23 11:04:25;;;;;;;8.05;5.30;;;;;;;23.25;63.33;101895.72;6203701;23;20330;-84
2023/08/23 11:06:51;;;;;;;9.30;6.00;;;;;;;23.17;62.88;101879.78;6204034;23;20426;-82
2023/08/23 11:09:17;;;;;;;10.70;5.65;;;;;;;23.16;61.37;101886.25;6177024;23;20067;-82
2023/08/23 11:11:42;;;;;;;10.25;5.07;;;;;;;23.23;62.19;101881.59;6204201;23;20456;-82